Time;durP1;ratioP1;P1;durP2;ratioP2;P2;SDS_P1;SDS_P2;PMS_P1;PMS_P2;Temp;Humidity;BMP_temperature;BMP_pressure;BME280_temperature;BME280_humidity;BME280_pressure;Samples;Min_cycle;Max_cycle;Signal;HPM_P1;HPM_P2
2023/05/10 00:00:17;;;;;;;0.20;0.20;;;;;;;;;;4959464;28;20446;-76
2023/05/10 00:03:04;;;;;;;0.10;0.10;;;;;;;;;;4945155;28;20031;-76
2023/05/10 00:05:50;;;;;;;0.10;0.10;;;;;;;;;;4960894;28;20054;-76
2023/05/10 00:08:36;;;;;;;0.10;0.10;;;;;;;;;;4959420;28;20426;-77
2023/05/10 00:11:22;;;;;;;0.10;0.10;;;;;;;;;;4959109;28;20027;-77
2023/05/10 00:14:08;;;;;;;0.10;0.10;;;;;;;;;;4957402;28;20046;-77
2023/05/10 00:16:53;;;;;;;0.10;0.10;;;;;;;;;;4960663;28;20035;-77
2023/05/10 00:19:39;;;;;;;0.10;0.10;;;;;;;;;;4958957;28;20774;-77
2023/05/10 00:22:25;;;;;;;0.10;0.10;;;;;;;;;;4958757;28;20043;-77
2023/05/10 00:25:11;;;;;;;0.10;0.10;;;;;;;;;;4960371;28;20420;-77
2023/05/10 00:27:57;;;;;;;0.10;0.10;;;;;;;;;;4957263;28;20050;-76
2023/05/10 00:30:42;;;;;;;0.10;0.10;;;;;;;;;;4956446;28;20381;-77
2023/05/10 00:33:28;;;;;;;0.10;0.10;;;;;;;;;;4962010;28;20057;-77
2023/05/10 00:36:14;;;;;;;0.10;0.10;;;;;;;;;;4958821;28;20043;-76
2023/05/10 00:39:00;;;;;;;0.10;0.10;;;;;;;;;;4959139;28;20034;-77
2023/05/10 00:41:46;;;;;;;0.10;0.10;;;;;;;;;;4960188;28;20043;-77
2023/05/10 00:44:32;;;;;;;0.10;0.10;;;;;;;;;;4957143;28;20417;-77
2023/05/10 00:47:17;;;;;;;0.10;0.10;;;;;;;;;;4960003;28;20055;-76
2023/05/10 00:50:04;;;;;;;0.10;0.10;;;;;;;;;;4958603;28;20023;-76
2023/05/10 00:52:50;;;;;;;0.10;0.10;;;;;;;;;;4958696;28;20035;-77
2023/05/10 00:55:39;;;;;;;0.20;0.20;;;;;;;;;;4960120;28;20046;-77
2023/05/10 00:58:30;;;;;;;0.10;0.10;;;;;;;;;;4959331;28;20035;-77
2023/05/10 01:01:16;;;;;;;0.10;0.10;;;;;;;;;;4957399;28;20417;-76
2023/05/10 01:04:02;;;;;;;0.10;0.10;;;;;;;;;;4961738;28;20031;-77
2023/05/10 01:06:48;;;;;;;0.10;0.10;;;;;;;;;;4959942;28;20035;-77
2023/05/10 01:09:34;;;;;;;0.10;0.10;;;;;;;;;;4958423;28;20037;-76
2023/05/10 01:12:20;;;;;;;0.10;0.10;;;;;;;;;;4944854;28;20267;-76
2023/05/10 01:15:07;;;;;;;0.10;0.10;;;;;;;;;;4957895;28;20084;-77
2023/05/10 01:17:53;;;;;;;0.10;0.10;;;;;;;;;;4957376;28;20089;-77
2023/05/10 01:20:43;;;;;;;0.10;0.10;;;;;;;;;;4943674;28;20046;-77
2023/05/10 01:23:47;;;;;;;0.10;0.10;;;;;;;;;;4958962;28;20030;-77
2023/05/10 01:26:47;;;;;;;0.10;0.10;;;;;;;;;;4957721;28;20070;-77
2023/05/10 01:29:39;;;;;;;0.10;0.10;;;;;;;;;;4938169;28;20046;-77
2023/05/10 01:32:40;;;;;;;0.10;0.10;;;;;;;;;;4940651;28;20046;-76
2023/05/10 01:35:26;;;;;;;0.10;0.10;;;;;;;;;;4939205;28;20069;-76
2023/05/10 01:38:35;;;;;;;0.20;0.20;;;;;;;;;;4924527;28;20610;-76
2023/05/10 01:41:26;;;;;;;0.10;0.10;;;;;;;;;;4915310;28;20745;-77
2023/05/10 01:44:20;;;;;;;0.20;0.20;;;;;;;;;;4925341;28;20039;-77
2023/05/10 01:47:09;;;;;;;0.10;0.10;;;;;;;;;;4904994;28;20318;-77
2023/05/10 01:49:56;;;;;;;0.10;0.10;;;;;;;;;;4938350;28;20047;-77
2023/05/10 01:52:43;;;;;;;0.10;0.10;;;;;;;;;;4939899;28;20070;-77
2023/05/10 01:55:30;;;;;;;0.10;0.10;;;;;;;;;;4938634;28;20035;-77
2023/05/10 01:58:21;;;;;;;0.20;0.20;;;;;;;;;;4939189;28;20404;-77
2023/05/10 02:01:08;;;;;;;0.10;0.10;;;;;;;;;;4939760;28;20046;-77
2023/05/10 02:03:55;;;;;;;0.10;0.10;;;;;;;;;;4940065;28;20385;-77
2023/05/10 02:06:41;;;;;;;0.10;0.10;;;;;;;;;;4938672;28;20062;-77
2023/05/10 02:09:27;;;;;;;0.10;0.10;;;;;;;;;;4938577;28;20047;-77
2023/05/10 02:12:15;;;;;;;0.10;0.10;;;;;;;;;;4923822;28;20046;-77
2023/05/10 02:15:02;;;;;;;0.20;0.20;;;;;;;;;;4934065;28;20106;-77
2023/05/10 02:17:48;;;;;;;0.10;0.10;;;;;;;;;;4924798;28;20605;-77
2023/05/10 02:20:34;;;;;;;0.10;0.10;;;;;;;;;;4937839;28;20051;-77
2023/05/10 02:23:20;;;;;;;0.20;0.20;;;;;;;;;;4940244;28;20035;-77
2023/05/10 02:26:10;;;;;;;0.20;0.20;;;;;;;;;;4939417;28;20027;-78
2023/05/10 02:28:56;;;;;;;0.10;0.10;;;;;;;;;;4923495;28;20346;-78
2023/05/10 02:31:43;;;;;;;0.20;0.20;;;;;;;;;;4936318;28;20050;-78
2023/05/10 02:34:29;;;;;;;0.10;0.10;;;;;;;;;;4938547;28;20628;-77
2023/05/10 02:37:15;;;;;;;0.20;0.20;;;;;;;;;;4921860;28;20053;-78
2023/05/10 02:40:03;;;;;;;0.10;0.10;;;;;;;;;;4921441;28;20046;-78
2023/05/10 02:42:52;;;;;;;0.10;0.10;;;;;;;;;;4937681;28;20122;-78
2023/05/10 02:45:38;;;;;;;0.10;0.10;;;;;;;;;;4935555;29;20915;-78
2023/05/10 02:48:24;;;;;;;0.10;0.10;;;;;;;;;;4923806;28;20035;-77
2023/05/10 02:51:12;;;;;;;0.20;0.20;;;;;;;;;;4926084;28;20674;-78
2023/05/10 02:54:01;;;;;;;0.20;0.20;;;;;;;;;;4938063;28;20035;-77
2023/05/10 02:56:49;;;;;;;0.10;0.10;;;;;;;;;;4935499;28;20031;-78
2023/05/10 02:59:35;;;;;;;0.10;0.10;;;;;;;;;;4939771;28;20489;-77
2023/05/10 03:02:21;;;;;;;0.10;0.10;;;;;;;;;;4919347;28;20181;-78
2023/05/10 03:05:07;;;;;;;0.10;0.10;;;;;;;;;;4938750;28;20139;-77
2023/05/10 03:07:54;;;;;;;0.10;0.10;;;;;;;;;;4922710;28;20793;-78
2023/05/10 03:11:03;;;;;;;0.10;0.10;;;;;;;;;;4936912;28;20801;-78
2023/05/10 03:13:55;;;;;;;0.10;0.10;;;;;;;;;;4923451;28;20027;-78
2023/05/10 03:16:51;;;;;;;0.20;0.20;;;;;;;;;;4936871;28;20101;-78
2023/05/10 03:19:43;;;;;;;0.10;0.10;;;;;;;;;;4936477;28;20043;-76
2023/05/10 03:22:44;;;;;;;0.10;0.10;;;;;;;;;;4936791;28;20746;-77
2023/05/10 03:25:31;;;;;;;0.10;0.10;;;;;;;;;;4924212;28;20050;-77
2023/05/10 03:28:18;;;;;;;0.10;0.10;;;;;;;;;;4946145;28;20551;-76
2023/05/10 03:31:05;;;;;;;0.10;0.10;;;;;;;;;;4955938;28;20036;-77
2023/05/10 03:33:52;;;;;;;0.10;0.10;;;;;;;;;;4939566;28;20567;-77
2023/05/10 03:36:43;;;;;;;0.10;0.10;;;;;;;;;;4955991;28;20027;-77
2023/05/10 03:39:29;;;;;;;0.10;0.10;;;;;;;;;;4956302;28;20035;-77
2023/05/10 03:42:18;;;;;;;0.10;0.10;;;;;;;;;;4957484;28;20043;-76
2023/05/10 03:45:04;;;;;;;0.10;0.10;;;;;;;;;;4942524;28;20085;-77
2023/05/10 03:47:49;;;;;;;0.10;0.10;;;;;;;;;;4955038;28;20049;-77
2023/05/10 03:50:35;;;;;;;0.17;0.17;;;;;;;;;;4957077;28;20046;-77
2023/05/10 03:53:22;;;;;;;0.10;0.10;;;;;;;;;;4955965;28;20027;-77
2023/05/10 03:56:08;;;;;;;0.10;0.10;;;;;;;;;;4942024;28;20050;-77
2023/05/10 03:58:55;;;;;;;0.20;0.20;;;;;;;;;;4955608;28;20031;-77
2023/05/10 04:01:41;;;;;;;0.20;0.20;;;;;;;;;;4956328;28;20035;-77
2023/05/10 04:04:28;;;;;;;0.10;0.10;;;;;;;;;;4958442;28;20069;-77
2023/05/10 04:07:14;;;;;;;0.10;0.10;;;;;;;;;;4957881;28;20085;-78
2023/05/10 04:10:00;;;;;;;0.20;0.20;;;;;;;;;;4944656;28;20090;-77
2023/05/10 04:12:45;;;;;;;0.10;0.10;;;;;;;;;;4956936;28;20390;-77
2023/05/10 04:15:31;;;;;;;0.10;0.10;;;;;;;;;;4957573;28;20339;-77
2023/05/10 04:18:17;;;;;;;0.10;0.10;;;;;;;;;;4960202;28;20030;-77
2023/05/10 04:21:03;;;;;;;0.15;0.15;;;;;;;;;;4959154;28;20124;-77
2023/05/10 04:23:48;;;;;;;0.10;0.10;;;;;;;;;;4957781;28;20062;-77
2023/05/10 04:26:34;;;;;;;0.20;0.20;;;;;;;;;;4954207;28;20506;-76
2023/05/10 04:29:20;;;;;;;0.13;0.13;;;;;;;;;;4930212;28;20139;-77
2023/05/10 04:32:06;;;;;;;0.20;0.20;;;;;;;;;;4958251;28;20827;-77
2023/05/10 04:34:52;;;;;;;0.10;0.10;;;;;;;;;;4956178;28;20027;-78
2023/05/10 04:37:38;;;;;;;0.10;0.10;;;;;;;;;;4959613;28;20034;-77
2023/05/10 04:40:24;;;;;;;0.10;0.10;;;;;;;;;;4964053;28;20587;-78
2023/05/10 04:43:09;;;;;;;0.10;0.10;;;;;;;;;;4962635;28;20384;-77
2023/05/10 04:45:58;;;;;;;0.15;0.15;;;;;;;;;;4960928;28;20049;-78
2023/05/10 04:48:44;;;;;;;0.10;0.10;;;;;;;;;;4960850;28;20057;-78
2023/05/10 04:51:30;;;;;;;0.10;0.10;;;;;;;;;;4960542;28;20038;-78
2023/05/10 04:54:16;;;;;;;0.17;0.17;;;;;;;;;;4960656;28;20038;-76
2023/05/10 04:57:04;;;;;;;0.15;0.15;;;;;;;;;;4961066;28;20546;-76
2023/05/10 04:59:49;;;;;;;0.10;0.10;;;;;;;;;;4959665;28;20066;-77
2023/05/10 05:02:35;;;;;;;0.10;0.10;;;;;;;;;;4945200;28;20046;-77
2023/05/10 05:05:20;;;;;;;0.10;0.10;;;;;;;;;;4960624;28;20030;-76
2023/05/10 05:08:06;;;;;;;0.10;0.10;;;;;;;;;;4959962;28;20053;-77
2023/05/10 05:10:52;;;;;;;0.20;0.20;;;;;;;;;;4960048;28;20783;-76
2023/05/10 05:13:38;;;;;;;0.10;0.10;;;;;;;;;;4959434;28;20027;-77
2023/05/10 05:16:24;;;;;;;0.10;0.10;;;;;;;;;;4960195;28;20244;-78
2023/05/10 05:19:10;;;;;;;0.10;0.10;;;;;;;;;;4959931;28;20031;-77
2023/05/10 05:21:56;;;;;;;0.20;0.20;;;;;;;;;;4960629;28;20581;-77
2023/05/10 05:24:41;;;;;;;0.10;0.10;;;;;;;;;;4959904;28;20039;-78
2023/05/10 05:27:27;;;;;;;0.13;0.13;;;;;;;;;;4959037;28;20093;-77
2023/05/10 05:30:15;;;;;;;0.10;0.10;;;;;;;;;;4960787;28;20126;-78
2023/05/10 05:33:01;;;;;;;0.10;0.10;;;;;;;;;;4960158;28;20471;-77
2023/05/10 05:35:50;;;;;;;0.10;0.10;;;;;;;;;;4945442;28;20073;-77
2023/05/10 05:38:36;;;;;;;0.10;0.10;;;;;;;;;;4959985;28;20159;-78
2023/05/10 05:41:22;;;;;;;0.10;0.10;;;;;;;;;;4961840;28;20086;-78
2023/05/10 05:44:08;;;;;;;0.15;0.15;;;;;;;;;;4960150;28;20292;-78
2023/05/10 05:46:53;;;;;;;0.20;0.20;;;;;;;;;;4959828;28;20035;-78
2023/05/10 05:49:39;;;;;;;0.10;0.10;;;;;;;;;;4958982;28;20035;-78
2023/05/10 05:52:25;;;;;;;0.10;0.10;;;;;;;;;;4958947;28;20801;-77
2023/05/10 05:55:11;;;;;;;0.20;0.20;;;;;;;;;;4959254;28;20125;-77
2023/05/10 05:57:57;;;;;;;0.10;0.10;;;;;;;;;;4959096;28;20034;-78
2023/05/10 06:00:43;;;;;;;0.10;0.10;;;;;;;;;;4940617;28;20043;-77
2023/05/10 06:03:29;;;;;;;0.10;0.10;;;;;;;;;;4957640;28;20499;-77
2023/05/10 06:06:15;;;;;;;0.20;0.13;;;;;;;;;;4958321;28;20035;-77
2023/05/10 06:09:00;;;;;;;0.20;0.20;;;;;;;;;;4943938;28;20042;-77
2023/05/10 06:11:46;;;;;;;0.10;0.10;;;;;;;;;;4957751;28;20049;-77
2023/05/10 06:14:32;;;;;;;0.10;0.10;;;;;;;;;;4957790;28;20030;-77
2023/05/10 06:17:17;;;;;;;0.20;0.20;;;;;;;;;;4960007;28;20510;-77
2023/05/10 06:20:03;;;;;;;0.10;0.10;;;;;;;;;;4957064;28;20723;-77
2023/05/10 06:22:49;;;;;;;0.10;0.10;;;;;;;;;;4957775;28;20140;-77
2023/05/10 06:25:35;;;;;;;0.10;0.10;;;;;;;;;;4958028;28;20271;-77
2023/05/10 06:28:21;;;;;;;0.10;0.10;;;;;;;;;;4957399;28;20543;-77
2023/05/10 06:31:06;;;;;;;0.10;0.10;;;;;;;;;;4957438;28;20077;-76
2023/05/10 06:33:52;;;;;;;0.10;0.10;;;;;;;;;;4943045;28;20479;-76
2023/05/10 06:36:38;;;;;;;0.20;0.20;;;;;;;;;;4955931;28;20043;-76
2023/05/10 06:39:24;;;;;;;0.10;0.10;;;;;;;;;;4958107;28;20557;-77
2023/05/10 06:42:09;;;;;;;0.20;0.20;;;;;;;;;;4960115;28;20087;-77
2023/05/10 06:44:55;;;;;;;0.10;0.10;;;;;;;;;;4958172;28;20031;-76
2023/05/10 06:47:41;;;;;;;0.10;0.10;;;;;;;;;;4956795;28;20347;-78
2023/05/10 06:50:27;;;;;;;0.15;0.15;;;;;;;;;;4958303;28;20320;-78
2023/05/10 06:53:13;;;;;;;0.20;0.20;;;;;;;;;;4958037;28;20042;-78
2023/05/10 06:55:59;;;;;;;0.15;0.15;;;;;;;;;;4960073;28;20506;-78
2023/05/10 06:58:45;;;;;;;0.20;0.20;;;;;;;;;;4956874;28;20521;-77
2023/05/10 07:01:31;;;;;;;0.20;0.20;;;;;;;;;;4955825;28;20101;-78
2023/05/10 07:04:17;;;;;;;0.10;0.10;;;;;;;;;;4944714;28;20035;-77
2023/05/10 07:07:03;;;;;;;0.20;0.20;;;;;;;;;;4959511;28;20074;-76
2023/05/10 07:09:49;;;;;;;0.10;0.10;;;;;;;;;;4942309;28;20117;-76
2023/05/10 07:12:35;;;;;;;0.20;0.20;;;;;;;;;;4955196;28;20167;-77
2023/05/10 07:15:21;;;;;;;0.10;0.10;;;;;;;;;;4958669;28;20463;-77
2023/05/10 07:18:06;;;;;;;0.10;0.10;;;;;;;;;;4958794;28;20475;-77
2023/05/10 07:20:52;;;;;;;0.10;0.10;;;;;;;;;;4959363;28;20571;-77
2023/05/10 07:23:38;;;;;;;0.10;0.10;;;;;;;;;;4956938;28;20125;-77
2023/05/10 07:26:23;;;;;;;0.10;0.10;;;;;;;;;;4959061;28;20246;-75
2023/05/10 07:29:09;;;;;;;0.10;0.10;;;;;;;;;;4958191;28;20137;-77
2023/05/10 07:31:55;;;;;;;0.20;0.20;;;;;;;;;;4943106;28;20049;-78
2023/05/10 07:34:41;;;;;;;0.10;0.10;;;;;;;;;;4959190;28;20134;-76
2023/05/10 07:37:27;;;;;;;0.10;0.10;;;;;;;;;;4958270;28;20046;-76
2023/05/10 07:40:12;;;;;;;0.10;0.10;;;;;;;;;;4958979;28;20037;-76
2023/05/10 07:42:59;;;;;;;0.20;0.20;;;;;;;;;;4959458;28;20054;-77
2023/05/10 07:45:45;;;;;;;0.17;0.17;;;;;;;;;;4956643;28;20050;-77
2023/05/10 07:48:34;;;;;;;0.20;0.20;;;;;;;;;;4957697;28;20031;-78
2023/05/10 07:51:19;;;;;;;0.13;0.13;;;;;;;;;;4958228;28;20043;-75
2023/05/10 07:54:05;;;;;;;0.10;0.10;;;;;;;;;;4959286;28;20022;-77
2023/05/10 07:56:51;;;;;;;0.10;0.10;;;;;;;;;;4958514;28;20471;-77
2023/05/10 07:59:37;;;;;;;0.10;0.10;;;;;;;;;;4944399;28;20035;-76
2023/05/10 08:02:22;;;;;;;0.20;0.20;;;;;;;;;;4957977;28;20133;-77
2023/05/10 08:05:09;;;;;;;0.20;0.20;;;;;;;;;;4957043;28;20043;-76
2023/05/10 08:07:54;;;;;;;0.20;0.20;;;;;;;;;;4956422;28;20069;-77
2023/05/10 08:10:41;;;;;;;0.17;0.17;;;;;;;;;;4956813;28;20031;-76
2023/05/10 08:13:26;;;;;;;0.20;0.20;;;;;;;;;;4947654;28;20074;-76
2023/05/10 08:16:12;;;;;;;0.20;0.20;;;;;;;;;;4945110;28;20367;-76
2023/05/10 08:18:58;;;;;;;0.15;0.10;;;;;;;;;;4962139;28;20038;-75
2023/05/10 08:21:44;;;;;;;0.15;0.15;;;;;;;;;;4960808;28;20487;-77
2023/05/10 08:24:30;;;;;;;0.10;0.10;;;;;;;;;;4962261;28;20267;-76
2023/05/10 08:27:16;;;;;;;0.20;0.20;;;;;;;;;;4944080;28;20031;-77
2023/05/10 08:30:02;;;;;;;0.10;0.10;;;;;;;;;;4961677;28;20038;-76
2023/05/10 08:32:48;;;;;;;0.10;0.10;;;;;;;;;;4958884;28;20039;-76
2023/05/10 08:35:34;;;;;;;0.20;0.20;;;;;;;;;;4961472;28;20050;-76
2023/05/10 08:38:20;;;;;;;0.20;0.20;;;;;;;;;;4960584;28;20085;-76
2023/05/10 08:41:06;;;;;;;0.20;0.20;;;;;;;;;;4959191;28;20042;-76
2023/05/10 08:43:52;;;;;;;0.10;0.10;;;;;;;;;;4958257;28;20035;-76
2023/05/10 08:46:43;;;;;;;0.10;0.10;;;;;;;;;;4942409;28;20042;-76
2023/05/10 08:49:29;;;;;;;;;;;;;;;;;;4960712;28;20153;-77
2023/05/10 08:52:16;;;;;;;0.20;0.20;;;;;;;;;;4959343;28;19914;-76
2023/05/10 08:55:02;;;;;;;0.10;0.10;;;;;;;;;;4959656;28;20031;-76
2023/05/10 08:57:47;;;;;;;0.10;0.10;;;;;;;;;;4960148;28;20043;-76
2023/05/10 09:00:34;;;;;;;0.10;0.10;;;;;;;;;;4959316;28;20047;-76
2023/05/10 09:03:20;;;;;;;0.10;0.10;;;;;;;;;;4958206;28;20035;-77
2023/05/10 09:06:06;;;;;;;0.20;0.20;;;;;;;;;;4957647;28;20062;-76
2023/05/10 09:08:52;;;;;;;0.10;0.10;;;;;;;;;;4955181;28;20035;-77
2023/05/10 09:11:38;;;;;;;0.10;0.10;;;;;;;;;;4957100;28;20030;-77
2023/05/10 09:14:24;;;;;;;0.10;0.10;;;;;;;;;;4959882;28;20494;-76
2023/05/10 09:17:10;;;;;;;0.10;0.10;;;;;;;;;;4959891;28;20042;-76
2023/05/10 09:19:59;;;;;;;0.17;0.17;;;;;;;;;;4960305;28;20560;-76
2023/05/10 09:22:48;;;;;;;0.10;0.10;;;;;;;;;;4959205;28;20439;-76
2023/05/10 09:25:34;;;;;;;0.15;0.15;;;;;;;;;;4960660;28;20037;-77
2023/05/10 09:28:20;;;;;;;0.20;0.20;;;;;;;;;;4958764;28;20046;-76
2023/05/10 09:31:05;;;;;;;0.10;0.10;;;;;;;;;;4959805;28;20112;-76
2023/05/10 09:33:51;;;;;;;0.10;0.10;;;;;;;;;;4935472;28;20057;-77
2023/05/10 09:36:49;;;;;;;0.20;0.20;;;;;;;;;;4956766;28;20051;-77
2023/05/10 09:39:38;;;;;;;0.10;0.10;;;;;;;;;;4954405;28;20488;-77
2023/05/10 09:42:24;;;;;;;0.10;0.10;;;;;;;;;;4958785;28;20047;-77
2023/05/10 09:45:10;;;;;;;0.30;0.22;;;;;;;;;;4958823;28;20027;-77
2023/05/10 09:47:56;;;;;;;0.10;0.10;;;;;;;;;;4959822;28;20046;-77
2023/05/10 09:50:42;;;;;;;0.10;0.10;;;;;;;;;;4958582;28;20190;-76
2023/05/10 09:53:28;;;;;;;0.20;0.20;;;;;;;;;;4958697;28;20244;-77
2023/05/10 09:56:35;;;;;;;0.10;0.10;;;;;;;;;;4956375;28;20034;-76
2023/05/10 09:59:21;;;;;;;0.10;0.10;;;;;;;;;;4959429;28;20035;-77
2023/05/10 10:02:07;;;;;;;0.10;0.10;;;;;;;;;;4958543;28;20050;-76
2023/05/10 10:04:53;;;;;;;0.10;0.10;;;;;;;;;;4955835;28;20031;-77
2023/05/10 10:07:39;;;;;;;0.10;0.10;;;;;;;;;;4957314;28;20031;-77
2023/05/10 10:10:25;;;;;;;0.10;0.10;;;;;;;;;;4957758;28;20046;-77
2023/05/10 10:13:11;;;;;;;0.10;0.10;;;;;;;;;;4957628;28;20093;-77
2023/05/10 10:15:56;;;;;;;0.10;0.10;;;;;;;;;;4959868;28;20558;-76
2023/05/10 10:18:42;;;;;;;0.10;0.10;;;;;;;;;;4958077;28;20101;-76
2023/05/10 10:21:28;;;;;;;0.10;0.10;;;;;;;;;;4955960;28;20047;-77
2023/05/10 10:24:14;;;;;;;0.10;0.10;;;;;;;;;;4957942;28;20372;-77
2023/05/10 10:27:08;;;;;;;0.13;0.13;;;;;;;;;;4943200;28;20408;-77
2023/05/10 10:30:12;;;;;;;0.10;0.10;;;;;;;;;;4939027;28;20078;-76
2023/05/10 10:33:08;;;;;;;0.10;0.10;;;;;;;;;;4918501;28;20039;-77
2023/05/10 10:35:55;;;;;;;0.10;0.10;;;;;;;;;;4911846;28;20165;-76
2023/05/10 10:38:47;;;;;;;0.10;0.10;;;;;;;;;;4921271;29;20508;-77
2023/05/10 10:41:34;;;;;;;0.10;0.10;;;;;;;;;;4940028;28;20800;-77
2023/05/10 10:44:25;;;;;;;0.10;0.10;;;;;;;;;;4936511;28;20126;-77
2023/05/10 10:47:11;;;;;;;0.20;0.20;;;;;;;;;;4928340;28;20571;-77
2023/05/10 10:49:57;;;;;;;0.10;0.10;;;;;;;;;;4921048;29;20040;-77
2023/05/10 10:52:43;;;;;;;0.10;0.10;;;;;;;;;;4937884;28;20035;-77
2023/05/10 10:55:30;;;;;;;0.10;0.10;;;;;;;;;;4938503;28;20256;-77
2023/05/10 10:58:36;;;;;;;0.20;0.20;;;;;;;;;;4941183;28;20035;-76
2023/05/10 11:01:21;;;;;;;0.20;0.20;;;;;;;;;;4938020;28;20055;-77
2023/05/10 11:04:07;;;;;;;0.20;0.20;;;;;;;;;;4936751;28;20137;-77
2023/05/10 11:07:13;;;;;;;0.20;0.20;;;;;;;;;;4938040;28;20047;-77
2023/05/10 11:10:03;;;;;;;0.20;0.20;;;;;;;;;;4936407;28;20133;-77
2023/05/10 11:13:05;;;;;;;0.17;0.17;;;;;;;;;;4938864;28;20046;-77
2023/05/10 11:15:51;;;;;;;;;;;;;;;;;;4940233;28;20062;-77
2023/05/10 11:18:37;;;;;;;0.10;0.10;;;;;;;;;;4936393;28;19915;-77
2023/05/10 11:21:23;;;;;;;0.20;0.20;;;;;;;;;;4922471;28;20043;-77
2023/05/10 11:24:13;;;;;;;0.10;0.10;;;;;;;;;;4938839;28;20043;-77
2023/05/10 11:26:59;;;;;;;0.20;0.20;;;;;;;;;;4922346;28;20066;-77
2023/05/10 11:29:45;;;;;;;0.10;0.10;;;;;;;;;;4938800;28;20043;-77
2023/05/10 11:32:31;;;;;;;0.20;0.20;;;;;;;;;;4937810;28;20059;-77
2023/05/10 11:35:16;;;;;;;0.20;0.20;;;;;;;;;;4924667;28;20054;-77
2023/05/10 11:38:02;;;;;;;0.10;0.10;;;;;;;;;;4937122;28;20392;-77
2023/05/10 11:40:51;;;;;;;0.20;0.20;;;;;;;;;;4936860;28;20766;-77
2023/05/10 11:43:38;;;;;;;0.20;0.20;;;;;;;;;;4937830;28;20042;-78
2023/05/10 11:46:24;;;;;;;0.10;0.10;;;;;;;;;;4922726;28;20146;-77
2023/05/10 11:49:10;;;;;;;0.10;0.10;;;;;;;;;;4939083;28;20042;-77
2023/05/10 11:52:14;;;;;;;0.10;0.10;;;;;;;;;;4937554;28;20035;-77
2023/05/10 11:55:00;;;;;;;0.10;0.10;;;;;;;;;;4936418;28;20061;-77
2023/05/10 11:57:46;;;;;;;0.20;0.20;;;;;;;;;;4935914;28;20368;-77
2023/05/10 12:00:32;;;;;;;0.20;0.20;;;;;;;;;;4936559;28;20487;-77
2023/05/10 12:03:17;;;;;;;0.10;0.10;;;;;;;;;;4937377;28;20258;-77
2023/05/10 12:06:03;;;;;;;0.17;0.17;;;;;;;;;;4937151;28;20043;-76
2023/05/10 12:08:52;;;;;;;0.20;0.20;;;;;;;;;;4935609;28;20188;-77
2023/05/10 12:11:40;;;;;;;0.20;0.20;;;;;;;;;;4936059;28;20054;-76
2023/05/10 12:14:26;;;;;;;0.20;0.20;;;;;;;;;;4921727;28;20512;-76
2023/05/10 12:17:12;;;;;;;0.20;0.20;;;;;;;;;;4936867;28;20234;-77
2023/05/10 12:20:16;;;;;;;0.20;0.20;;;;;;;;;;4937470;28;20400;-76
2023/05/10 12:23:03;;;;;;;0.20;0.20;;;;;;;;;;4937548;28;20042;-77
2023/05/10 12:25:49;;;;;;;0.10;0.10;;;;;;;;;;4936735;28;20498;-76
2023/05/10 12:28:35;;;;;;;0.20;0.20;;;;;;;;;;4949095;28;20063;-77
2023/05/10 12:31:21;;;;;;;0.10;0.10;;;;;;;;;;4957386;28;20070;-76
2023/05/10 12:34:07;;;;;;;0.10;0.10;;;;;;;;;;4937740;28;20050;-77
2023/05/10 12:36:53;;;;;;;0.10;0.10;;;;;;;;;;4957658;28;20372;-76
2023/05/10 12:39:43;;;;;;;0.10;0.10;;;;;;;;;;4954770;28;20026;-76
2023/05/10 12:42:29;;;;;;;0.10;0.10;;;;;;;;;;4957079;28;20284;-76
2023/05/10 12:45:17;;;;;;;0.20;0.20;;;;;;;;;;4957270;28;20042;-76
2023/05/10 12:48:02;;;;;;;0.20;0.20;;;;;;;;;;4957619;28;20070;-76
2023/05/10 12:50:48;;;;;;;0.20;0.20;;;;;;;;;;4942157;28;20034;-76
2023/05/10 12:53:35;;;;;;;0.20;0.20;;;;;;;;;;4956892;28;20383;-77
2023/05/10 12:56:20;;;;;;;0.20;0.20;;;;;;;;;;4955857;28;20038;-76
2023/05/10 12:59:06;;;;;;;0.10;0.10;;;;;;;;;;4961039;28;20069;-76
2023/05/10 13:01:52;;;;;;;0.10;0.10;;;;;;;;;;4960367;28;20964;-77
2023/05/10 13:04:39;;;;;;;0.13;0.13;;;;;;;;;;4961141;28;20114;-77
2023/05/10 13:07:25;;;;;;;0.20;0.20;;;;;;;;;;4960177;28;20089;-76
2023/05/10 13:10:11;;;;;;;0.20;0.20;;;;;;;;;;4946582;28;20026;-77
2023/05/10 13:12:57;;;;;;;0.20;0.20;;;;;;;;;;4960672;28;20043;-77
2023/05/10 13:15:43;;;;;;;0.10;0.10;;;;;;;;;;4959439;28;20039;-77
2023/05/10 13:18:28;;;;;;;0.10;0.10;;;;;;;;;;4960784;28;20104;-76
2023/05/10 13:21:14;;;;;;;0.10;0.10;;;;;;;;;;4960003;28;20141;-76
2023/05/10 13:24:01;;;;;;;0.10;0.10;;;;;;;;;;4960456;28;20140;-76
2023/05/10 13:26:46;;;;;;;0.20;0.20;;;;;;;;;;4960012;28;20466;-76
2023/05/10 13:29:32;;;;;;;0.13;0.13;;;;;;;;;;4941502;28;20494;-76
2023/05/10 13:32:18;;;;;;;0.10;0.10;;;;;;;;;;4939672;28;20098;-76
2023/05/10 13:35:04;;;;;;;0.22;0.20;;;;;;;;;;4915569;28;20050;-76
2023/05/10 13:37:50;;;;;;;0.20;0.20;;;;;;;;;;4937919;28;20051;-76
2023/05/10 13:40:35;;;;;;;0.20;0.20;;;;;;;;;;4941692;28;20278;-76
2023/05/10 13:43:21;;;;;;;0.10;0.10;;;;;;;;;;4939965;28;20035;-76
2023/05/10 13:46:07;;;;;;;0.20;0.20;;;;;;;;;;4939079;28;20203;-76
2023/05/10 13:48:53;;;;;;;0.10;0.10;;;;;;;;;;4937612;28;20121;-76
2023/05/10 13:51:39;;;;;;;0.20;0.20;;;;;;;;;;4938073;28;20034;-77
2023/05/10 13:54:25;;;;;;;0.20;0.20;;;;;;;;;;4939824;28;20043;-76
2023/05/10 13:57:12;;;;;;;0.10;0.10;;;;;;;;;;4939321;28;20035;-76
2023/05/10 13:59:58;;;;;;;0.10;0.10;;;;;;;;;;4940324;28;20484;-76
2023/05/10 14:02:43;;;;;;;0.10;0.10;;;;;;;;;;4936333;28;20043;-76
2023/05/10 14:05:29;;;;;;;0.10;0.10;;;;;;;;;;4938958;28;20098;-77
2023/05/10 14:08:15;;;;;;;0.13;0.13;;;;;;;;;;4940409;28;20108;-76
2023/05/10 14:11:01;;;;;;;0.20;0.20;;;;;;;;;;4938472;28;20873;-76
2023/05/10 14:13:47;;;;;;;0.17;0.17;;;;;;;;;;4938258;28;20507;-76
2023/05/10 14:16:32;;;;;;;0.20;0.20;;;;;;;;;;4938813;28;20039;-76
2023/05/10 14:19:18;;;;;;;0.10;0.10;;;;;;;;;;4940937;28;20046;-77
2023/05/10 14:22:04;;;;;;;0.10;0.10;;;;;;;;;;4940342;28;20122;-76
2023/05/10 14:24:50;;;;;;;0.20;0.20;;;;;;;;;;4938948;28;20392;-77
2023/05/10 14:27:36;;;;;;;0.20;0.20;;;;;;;;;;4942253;28;20051;-77
2023/05/10 14:30:23;;;;;;;0.20;0.20;;;;;;;;;;4955731;28;20243;-76
2023/05/10 14:33:08;;;;;;;0.20;0.20;;;;;;;;;;4958226;28;20038;-77
2023/05/10 14:35:56;;;;;;;0.20;0.20;;;;;;;;;;4958297;28;20034;-76
2023/05/10 14:38:42;;;;;;;0.20;0.20;;;;;;;;;;4930284;28;20109;-77
2023/05/10 14:41:27;;;;;;;0.20;0.20;;;;;;;;;;4958460;28;20081;-77
2023/05/10 14:44:15;;;;;;;0.13;0.13;;;;;;;;;;4958193;28;20049;-76
2023/05/10 14:47:00;;;;;;;0.20;0.20;;;;;;;;;;4939923;28;20173;-78
2023/05/10 14:49:46;;;;;;;0.20;0.20;;;;;;;;;;4939310;28;20038;-78
2023/05/10 14:52:32;;;;;;;0.20;0.20;;;;;;;;;;4942014;28;20109;-77
2023/05/10 14:55:18;;;;;;;0.10;0.10;;;;;;;;;;4950622;28;20364;-77
2023/05/10 14:58:04;;;;;;;0.10;0.10;;;;;;;;;;4925391;28;20333;-77
2023/05/10 15:00:50;;;;;;;0.20;0.20;;;;;;;;;;4956530;28;20085;-78
2023/05/10 15:03:36;;;;;;;0.20;0.20;;;;;;;;;;4943890;28;20077;-77
2023/05/10 15:06:30;;;;;;;0.20;0.20;;;;;;;;;;4941670;28;20038;-78
2023/05/10 15:09:16;;;;;;;0.10;0.10;;;;;;;;;;4944238;28;20339;-77
2023/05/10 15:12:02;;;;;;;0.10;0.10;;;;;;;;;;4956177;28;20046;-77
2023/05/10 15:14:48;;;;;;;0.20;0.20;;;;;;;;;;4956026;28;20051;-77
2023/05/10 15:17:33;;;;;;;0.15;0.15;;;;;;;;;;4957668;28;20097;-78
2023/05/10 15:20:19;;;;;;;0.20;0.20;;;;;;;;;;4940726;28;20046;-78
2023/05/10 15:23:05;;;;;;;0.20;0.20;;;;;;;;;;4958437;28;20037;-78
2023/05/10 15:25:55;;;;;;;0.20;0.20;;;;;;;;;;4939535;28;21986;-78
2023/05/10 15:28:40;;;;;;;0.20;0.20;;;;;;;;;;4957341;28;20051;-77
2023/05/10 15:31:26;;;;;;;0.10;0.10;;;;;;;;;;4958133;28;20049;-78
2023/05/10 15:34:13;;;;;;;0.10;0.10;;;;;;;;;;4958181;28;20030;-78
2023/05/10 15:36:58;;;;;;;0.20;0.20;;;;;;;;;;4949285;28;20580;-78
2023/05/10 15:39:44;;;;;;;0.10;0.10;;;;;;;;;;4954294;28;20411;-77
2023/05/10 15:42:31;;;;;;;0.15;0.15;;;;;;;;;;4946210;28;20110;-76
2023/05/10 15:45:17;;;;;;;0.17;0.17;;;;;;;;;;4958146;28;20121;-78
2023/05/10 15:48:03;;;;;;;0.20;0.20;;;;;;;;;;4955919;28;20384;-78
2023/05/10 15:50:48;;;;;;;0.17;0.17;;;;;;;;;;4955110;28;20827;-79
2023/05/10 15:53:34;;;;;;;0.10;0.10;;;;;;;;;;4955489;28;20409;-78
2023/05/10 15:56:21;;;;;;;0.15;0.15;;;;;;;;;;4949478;28;20739;-78
2023/05/10 15:59:07;;;;;;;0.10;0.10;;;;;;;;;;4953059;28;20039;-78
2023/05/10 16:01:53;;;;;;;0.10;0.10;;;;;;;;;;4954991;28;20035;-78
2023/05/10 16:04:39;;;;;;;0.10;0.10;;;;;;;;;;4956552;28;20035;-78
2023/05/10 16:07:24;;;;;;;0.20;0.20;;;;;;;;;;4958022;28;20031;-78
2023/05/10 16:10:10;;;;;;;0.10;0.10;;;;;;;;;;4957830;28;20916;-77
2023/05/10 16:12:57;;;;;;;0.20;0.20;;;;;;;;;;4956705;28;20467;-79
2023/05/10 16:15:43;;;;;;;0.10;0.10;;;;;;;;;;4955952;28;20041;-78
2023/05/10 16:18:29;;;;;;;0.20;0.20;;;;;;;;;;4943768;28;20034;-78
2023/05/10 16:21:15;;;;;;;0.10;0.10;;;;;;;;;;4957524;28;20503;-77
2023/05/10 16:24:02;;;;;;;0.20;0.20;;;;;;;;;;4955890;28;20046;-76
2023/05/10 16:26:47;;;;;;;0.10;0.10;;;;;;;;;;4950503;28;20027;-76
2023/05/10 16:29:33;;;;;;;0.20;0.20;;;;;;;;;;4955541;28;20054;-76
2023/05/10 16:32:19;;;;;;;0.13;0.13;;;;;;;;;;4955721;28;20041;-76
2023/05/10 16:35:05;;;;;;;0.10;0.10;;;;;;;;;;4959617;28;20594;-76
2023/05/10 16:37:52;;;;;;;0.20;0.20;;;;;;;;;;4931474;28;20758;-77
2023/05/10 16:40:37;;;;;;;0.10;0.10;;;;;;;;;;4958876;28;20066;-77